Albuquerque, NM

1:58 PM MDT on June 25, 2017 (GMT -0600)
Sante Fe Village - Rockcress | | Change Station

Elev 5203 ft 35.14 °N, 106.72 °W | Updated 10 seconds ago

Scattered Clouds
Scattered Clouds
88.3 °F
Feels Like 85 °F
N
12.1
Wind Variable Wind from South
Gusts 15.0 mph

Today
High -- | Low -- °F
--% Chance of Precip.
Yesterday
High -- | Low -- °F
Precip. -- in
Pressure 30.27 in
Visibility 10.0 miles
Clouds Scattered Clouds 12000 ft
Heat Index 85 °F
Dew Point 49 °F
Humidity 26%
Rainfall 0.00 in
Snow Depth Not available.
5:54 AM 8:25 PM
Waxing Crescent, 4% visible
METAR KAEG 251948Z 17007G15KT 120V200 10SM SCT120 31/10 A3027 RMK FU DSNT ALQDS
Pressure 30.27 in
Visibility 10.0 miles
Clouds Scattered Clouds 12000 ft
Heat Index 85 °F
Dew Point 49 °F
Humidity 26%
Rainfall 0.00 in
Snow Depth Not available.
5:54 AM 8:25 PM
Waxing Crescent, 4% visible
METAR KAEG 251948Z 17007G15KT 120V200 10SM SCT120 31/10 A3027 RMK FU DSNT ALQDS

Get Severe Weather Alerts

Thanks for signing up!

Be on the lookout for a verification email in your inbox.

You'll start receiving the daily forecast at 6 AM.

×

10-Day Weather Forecast

Almanac

Astronomy

Jun. 25, 2017 Rise Set
Actual Time
Civil Twilight
Nautical Twilight
Astronomical Twilight
Moon
Length of Visible Light
Length of Day
Tomorrow will be .
, % of the Moon is Illuminated

Today's Extremes

State Highs State Lows

Community

WunderPhotos

Category 6

Welcome to Category 6. This is the collective home for Weather Underground's featured writeups by Dr. Jeff Masters (right), Bob Henson (left), Chris Burt, and other regular contributors.

Nearby

Air Quality

  Air Quality AQ Index Pollutant
Not available.

Snow Depth

Station Depth Elevation

Earthquake Activity

City Distance Mag. Time & Date
Minimum magnitude displayed is 2.5.

Coastal Water Temperatures

Place Temperature

Stations

Nearby Weather Stations

Station Location Temp. Windchill Dew Point Humidity Wind Precip. Elev Updated Type
                   

Watches & Warnings

There are currently no watches in effect.